Tuesday, 2 November 2010

Autumn flight

I haven't managed to post much recently as things have been busy at work. Despite that I've managed to do some flying, including a short flight in great light - I posted a few more pics here.

Next week I'm off to AOPA Summit in Long Beach, although AOPA's autumn event is significantly smaller than Sun 'n Fun or Oshkosh it's nonetheless a great event mixing education, exhibition and social functions pretty well, although I see that tickets for this year's Saturday night meal are on sale for $250 each.

I'm due to fly to a meeting tomorrow, but looking at Lyneham's TAF I suspect that I'll be driving!

TAF EGDL 022234Z 0300/0318 22015G25KT 9999 -RA BKN012 TEMPO 0300/0309 22012KT 6000 -RADZ BKN006 TEMPO 0312/0318 5000 -RADZ SCT004 BKN008=



No comments: